createdAt,value
2023-10-02T00:02:48.876Z,100430.39
2023-10-02T00:06:01.880Z,100430.23
2023-10-02T00:09:14.810Z,100426.88
2023-10-02T00:11:49.857Z,100421.48
2023-10-02T00:15:04.803Z,100420.19
2023-10-02T00:18:23.061Z,100418.23
2023-10-02T00:21:18.538Z,100409.59
2023-10-02T00:24:38.332Z,100397.96
2023-10-02T00:28:17.978Z,100402.00
2023-10-02T00:31:56.878Z,100403.94
2023-10-02T00:35:14.719Z,100400.65
2023-10-02T00:37:57.863Z,100388.36
2023-10-02T00:41:12.423Z,100383.55
2023-10-02T00:44:58.076Z,100382.45
2023-10-02T00:48:30.836Z,100379.71
2023-10-02T00:51:45.216Z,100379.00
2023-10-02T00:54:53.303Z,100379.48
2023-10-02T00:58:10.231Z,100372.07
2023-10-02T01:01:39.975Z,100374.05
2023-10-02T01:04:51.732Z,100377.96
2023-10-02T01:08:16.527Z,100382.41
2023-10-02T01:11:48.556Z,100386.34
2023-10-02T01:15:19.188Z,100392.85
2023-10-02T01:17:50.040Z,100398.24
2023-10-02T01:20:43.950Z,100399.09
2023-10-02T01:24:28.698Z,100404.17
2023-10-02T01:27:49.342Z,100397.54
2023-10-02T01:31:20.131Z,100400.08
2023-10-02T01:34:57.447Z,100401.58
2023-10-02T01:41:30.845Z,100400.59
2023-10-02T01:45:04.732Z,100397.59
2023-10-02T01:48:11.911Z,100399.68
2023-10-02T01:51:23.228Z,100399.21
2023-10-02T01:54:33.446Z,100396.75
2023-10-02T01:57:30.950Z,100400.34
2023-10-02T02:00:27.442Z,100401.20
2023-10-02T02:04:00.103Z,100402.61
2023-10-02T02:06:56.758Z,100407.36
2023-10-02T02:09:46.775Z,100407.91
2023-10-02T02:12:56.890Z,100401.42
2023-10-02T02:16:29.314Z,100405.48
2023-10-02T02:19:07.144Z,100401.85
2023-10-02T02:21:58.393Z,100398.95
2023-10-02T02:24:41.199Z,100393.17
2023-10-02T02:27:13.116Z,100390.36
2023-10-02T02:29:49.121Z,100395.23
2023-10-02T02:32:49.114Z,100397.77
2023-10-02T02:35:29.408Z,100396.08
2023-10-02T02:38:30.885Z,100393.47
2023-10-02T02:41:24.942Z,100391.35
2023-10-02T02:44:44.920Z,100391.98
2023-10-02T02:47:52.946Z,100391.20
2023-10-02T02:50:38.820Z,100394.23
2023-10-02T02:53:18.352Z,100393.41
2023-10-02T02:56:12.558Z,100390.46
2023-10-02T02:58:51.794Z,100387.87
2023-10-02T03:01:32.055Z,100389.94
2023-10-02T03:04:20.780Z,100387.38
2023-10-02T03:07:09.246Z,100389.96
2023-10-02T03:10:12.811Z,100396.85
2023-10-02T03:13:18.322Z,100390.59
2023-10-02T03:16:08.129Z,100394.48
2023-10-02T03:18:45.078Z,100394.65
2023-10-02T03:21:31.928Z,100394.01
2023-10-02T03:24:39.012Z,100391.67
2023-10-02T03:27:10.153Z,100392.34
2023-10-02T03:29:39.478Z,100392.35
2023-10-02T03:32:13.933Z,100389.48
2023-10-02T03:35:03.994Z,100389.80
2023-10-02T03:37:59.286Z,100387.84
2023-10-02T03:40:33.317Z,100386.13
2023-10-02T03:43:20.765Z,100385.58
2023-10-02T03:45:59.927Z,100385.16
2023-10-02T03:49:15.858Z,100386.07
2023-10-02T03:51:59.040Z,100382.88
2023-10-02T03:54:56.692Z,100375.33
2023-10-02T03:57:45.045Z,100371.58
2023-10-02T04:00:54.068Z,100371.11
2023-10-02T04:04:11.416Z,100372.92
2023-10-02T04:06:49.169Z,100374.95
2023-10-02T04:09:37.677Z,100373.69
2023-10-02T04:13:04.895Z,100374.59
2023-10-02T04:17:08.683Z,100374.27
2023-10-02T04:19:57.585Z,100376.11
2023-10-02T04:23:22.700Z,100374.52
2023-10-02T04:26:04.493Z,100367.36
2023-10-02T04:29:25.880Z,100372.80
2023-10-02T04:32:28.117Z,100369.72
2023-10-02T04:35:34.102Z,100366.24
2023-10-02T04:38:57.167Z,100364.52
2023-10-02T04:41:34.936Z,100364.96
2023-10-02T04:44:15.281Z,100369.20
2023-10-02T04:46:47.139Z,100368.17
2023-10-02T04:49:18.375Z,100372.27
2023-10-02T04:51:59.826Z,100368.67
2023-10-02T04:54:28.456Z,100368.72
2023-10-02T04:57:17.987Z,100365.95
2023-10-02T04:59:56.800Z,100368.34
2023-10-02T05:02:28.183Z,100367.34
2023-10-02T05:05:27.084Z,100369.06
2023-10-02T05:08:01.695Z,100366.41
2023-10-02T05:10:37.030Z,100367.77
2023-10-02T05:13:45.639Z,100368.60
2023-10-02T05:16:19.891Z,100369.45
2023-10-02T05:19:00.344Z,100371.77
2023-10-02T05:22:01.845Z,100369.80
2023-10-02T05:25:30.459Z,100366.68
2023-10-02T05:28:48.103Z,100366.28
2023-10-02T05:31:53.943Z,100367.81
2023-10-02T05:35:17.860Z,100365.61
2023-10-02T05:37:53.465Z,100370.81
2023-10-02T05:40:37.295Z,100369.28
2023-10-02T05:43:45.965Z,100370.73
2023-10-02T05:46:52.794Z,100365.77
2023-10-02T05:49:50.111Z,100363.84
2023-10-02T05:52:54.759Z,100361.94
2023-10-02T05:55:52.108Z,100361.84
2023-10-02T05:58:44.303Z,100361.30
2023-10-02T06:02:06.916Z,100359.74
2023-10-02T06:05:18.400Z,100359.95
2023-10-02T06:07:54.102Z,100364.42
2023-10-02T06:11:01.270Z,100366.70
2023-10-02T06:14:37.125Z,100367.63
2023-10-02T06:18:00.399Z,100371.80
2023-10-02T06:21:58.524Z,100364.99
2023-10-02T06:24:30.605Z,100371.84
2023-10-02T06:27:31.518Z,100371.05
2023-10-02T06:30:06.161Z,100374.11
2023-10-02T06:33:31.926Z,100378.03
2023-10-02T06:36:30.112Z,100377.73
2023-10-02T06:39:45.474Z,100380.52
2023-10-02T06:42:32.157Z,100386.86
2023-10-02T06:45:47.000Z,100384.14
2023-10-02T06:48:45.006Z,100382.33
2023-10-02T06:51:27.510Z,100385.65
2023-10-02T06:54:17.310Z,100386.39
2023-10-02T06:57:15.887Z,100388.91
2023-10-02T06:59:55.951Z,100391.41
2023-10-02T07:03:09.687Z,100389.91
2023-10-02T07:06:06.949Z,100392.15
2023-10-02T07:09:10.600Z,100392.42
2023-10-02T07:12:39.304Z,100395.52
2023-10-02T07:15:36.346Z,100391.09
2023-10-02T07:18:16.780Z,100393.96
2023-10-02T07:21:11.372Z,100397.31
2023-10-02T07:24:28.345Z,100403.86
2023-10-02T07:27:26.947Z,100408.23
2023-10-02T07:30:34.533Z,100402.05
2023-10-02T07:37:44.343Z,100410.48
2023-10-02T07:40:23.772Z,100414.06
2023-10-02T07:43:06.050Z,100415.52
2023-10-02T07:46:16.541Z,100417.00
2023-10-02T07:49:33.479Z,100412.24
2023-10-02T07:52:50.269Z,100402.96
2023-10-02T07:55:25.282Z,100397.56
2023-10-02T07:58:31.070Z,100399.45
2023-10-02T08:01:29.519Z,100401.95
2023-10-02T08:04:49.007Z,100404.80
2023-10-02T08:07:44.578Z,100401.15
2023-10-02T08:10:48.061Z,100400.71
2023-10-02T08:13:34.192Z,100396.35
2023-10-02T08:16:27.710Z,100390.79
2023-10-02T08:18:59.751Z,100396.88
2023-10-02T08:21:47.587Z,100403.22
2023-10-02T08:24:25.891Z,100401.53
2023-10-02T08:26:58.159Z,100399.27
2023-10-02T08:29:34.664Z,100404.77
2023-10-02T08:32:34.933Z,100394.98
2023-10-02T08:35:15.819Z,100391.28
2023-10-02T08:38:20.025Z,100392.74
2023-10-02T08:41:01.222Z,100396.03
2023-10-02T08:43:31.249Z,100395.11
2023-10-02T08:46:07.158Z,100393.67
2023-10-02T08:48:36.059Z,100391.36
2023-10-02T08:51:34.950Z,100390.81
2023-10-02T08:54:07.474Z,100389.77
2023-10-02T08:57:00.628Z,100382.91
2023-10-02T08:59:55.334Z,100384.60
2023-10-02T09:02:25.294Z,100388.40
2023-10-02T09:05:05.327Z,100385.66
2023-10-02T09:07:46.905Z,100379.48
2023-10-02T09:10:59.834Z,100375.14
2023-10-02T09:13:58.646Z,100374.19
2023-10-02T09:16:45.128Z,100366.48
2023-10-02T09:19:32.228Z,100367.20
2023-10-02T09:22:08.129Z,100363.65
2023-10-02T09:24:43.385Z,100367.01
2023-10-02T09:27:39.804Z,100364.36
2023-10-02T09:30:21.430Z,100356.91
2023-10-02T09:32:53.052Z,100359.80
2023-10-02T09:36:12.281Z,100358.66
2023-10-02T09:38:58.167Z,100351.13
2023-10-02T09:42:23.584Z,100348.89
2023-10-02T09:46:07.003Z,100352.45
2023-10-02T09:49:12.936Z,100355.48
2023-10-02T09:52:41.252Z,100347.98
2023-10-02T09:56:00.324Z,100351.84
2023-10-02T09:59:17.960Z,100350.09
2023-10-02T10:02:32.548Z,100347.60
2023-10-02T10:05:34.584Z,100343.79
2023-10-02T10:08:40.578Z,100338.04
2023-10-02T10:12:44.251Z,100342.27
2023-10-02T10:16:41.944Z,100344.91
2023-10-02T10:20:20.944Z,100344.23
2023-10-02T10:23:34.359Z,100344.14
2023-10-02T10:27:03.248Z,100340.65
2023-10-02T10:30:41.128Z,100339.52
2023-10-02T10:34:10.849Z,100345.13
2023-10-02T10:37:58.357Z,100340.52
2023-10-02T10:41:39.078Z,100330.94
2023-10-02T10:44:56.627Z,100330.62
2023-10-02T10:48:31.458Z,100327.04
2023-10-02T10:51:37.197Z,100320.99
2023-10-02T10:54:16.493Z,100316.48
2023-10-02T10:57:45.726Z,100313.16
2023-10-02T11:00:50.724Z,100311.16
2023-10-02T11:03:28.111Z,100310.42
2023-10-02T11:06:34.072Z,100307.26
2023-10-02T11:09:14.398Z,100306.80
2023-10-02T11:11:51.014Z,100300.73
2023-10-02T11:14:35.861Z,100294.62
2023-10-02T11:17:34.223Z,100293.40
2023-10-02T11:20:35.597Z,100285.74
2023-10-02T11:23:05.660Z,100284.98
2023-10-02T11:26:17.377Z,100281.89
2023-10-02T11:28:51.283Z,100281.76
2023-10-02T11:31:37.431Z,100278.33
2023-10-02T11:34:31.818Z,100278.92
2023-10-02T11:37:00.410Z,100277.66
2023-10-02T11:39:29.355Z,100277.39
2023-10-02T11:42:09.667Z,100277.80
2023-10-02T11:44:47.027Z,100275.88
2023-10-02T11:47:16.213Z,100272.98
2023-10-02T11:49:49.241Z,100274.25
2023-10-02T11:52:20.412Z,100269.88
2023-10-02T11:54:54.891Z,100268.14
2023-10-02T11:57:24.041Z,100267.85
2023-10-02T11:59:58.379Z,100269.77
2023-10-02T12:02:27.574Z,100267.75
2023-10-02T12:05:06.246Z,100261.25
2023-10-02T12:08:18.355Z,100255.65
2023-10-02T12:10:48.001Z,100254.79
2023-10-02T12:13:17.188Z,100254.38
2023-10-02T12:16:04.324Z,100250.47
2023-10-02T12:19:01.786Z,100243.38
2023-10-02T12:21:36.689Z,100242.34
2023-10-02T12:24:10.914Z,100238.80
2023-10-02T12:26:50.103Z,100235.23
2023-10-02T12:29:22.710Z,100232.27
2023-10-02T12:32:02.276Z,100235.10
2023-10-02T12:34:53.070Z,100233.80
2023-10-02T12:37:34.873Z,100228.49
2023-10-02T12:40:13.393Z,100225.90
2023-10-02T12:42:47.913Z,100222.39
2023-10-02T12:45:17.869Z,100221.56
2023-10-02T12:47:49.883Z,100215.83
2023-10-02T12:50:31.734Z,100214.36
2023-10-02T12:53:08.290Z,100217.08
2023-10-02T12:55:48.236Z,100217.08
2023-10-02T12:58:20.713Z,100218.84
2023-10-02T13:00:52.710Z,100219.55
2023-10-02T13:03:27.631Z,100216.94
2023-10-02T13:06:12.100Z,100215.30
2023-10-02T13:09:04.925Z,100208.77
2023-10-02T13:12:00.225Z,100205.81
2023-10-02T13:14:48.525Z,100195.23
2023-10-02T13:17:33.551Z,100192.56
2023-10-02T13:20:04.142Z,100192.98
2023-10-02T13:22:39.422Z,100189.99
2023-10-02T13:25:33.930Z,100188.34
2023-10-02T13:28:03.924Z,100183.68
2023-10-02T13:30:51.024Z,100186.77
2023-10-02T13:33:23.409Z,100182.59
2023-10-02T13:36:17.609Z,100178.10
2023-10-02T13:39:52.129Z,100177.62
2023-10-02T13:42:21.725Z,100170.70
2023-10-02T13:45:27.115Z,100169.11
2023-10-02T13:47:59.090Z,100159.66
2023-10-02T13:50:30.392Z,100159.45
2023-10-02T13:53:02.932Z,100160.74
2023-10-02T13:55:37.132Z,100157.14
2023-10-02T13:58:07.664Z,100152.69
2023-10-02T14:00:40.754Z,100151.31
2023-10-02T14:03:12.466Z,100149.43
2023-10-02T14:05:41.563Z,100150.02
2023-10-02T14:08:27.028Z,100150.36
2023-10-02T14:10:56.066Z,100148.41
2023-10-02T14:13:24.264Z,100144.61
2023-10-02T14:15:54.713Z,100141.70
2023-10-02T14:18:28.726Z,100142.22
2023-10-02T14:21:06.949Z,100142.83
2023-10-02T14:23:54.275Z,100144.73
2023-10-02T14:26:27.780Z,100141.96
2023-10-02T14:29:44.718Z,100144.73
2023-10-02T14:32:25.253Z,100135.96
2023-10-02T14:35:15.770Z,100130.94
2023-10-02T16:04:33.796Z,100107.48
2023-10-02T16:15:15.433Z,100113.81
2023-10-02T16:18:21.135Z,100113.61
2023-10-02T16:21:48.062Z,100116.31
2023-10-02T16:24:49.702Z,100119.15
2023-10-02T16:27:21.610Z,100116.89
2023-10-02T16:29:54.490Z,100118.29
2023-10-02T16:32:55.105Z,100118.83
2023-10-02T16:35:33.058Z,100120.06
2023-10-02T16:38:09.270Z,100118.39
2023-10-02T16:40:38.188Z,100121.97
2023-10-02T16:43:11.225Z,100123.25
2023-10-02T16:45:51.051Z,100127.67
2023-10-02T16:49:47.066Z,100124.81
2023-10-02T16:53:54.057Z,100124.02
2023-10-02T16:58:04.509Z,100123.48
2023-10-02T17:00:28.389Z,100124.45
2023-10-02T17:03:24.353Z,100128.56
2023-10-02T17:06:06.804Z,100130.33
2023-10-02T17:08:43.929Z,100126.44
2023-10-02T17:11:39.719Z,100124.23
2023-10-02T17:14:18.088Z,100123.27
2023-10-02T17:16:58.376Z,100121.35
2023-10-02T17:20:08.708Z,100121.06
2023-10-02T17:22:41.761Z,100120.66
2023-10-02T17:43:41.655Z,100116.37
2023-10-02T17:46:20.422Z,100111.79
2023-10-02T17:49:09.764Z,100113.08
2023-10-02T17:52:00.504Z,100112.41
2023-10-02T17:54:49.998Z,100109.20
2023-10-02T18:00:27.896Z,100108.52
2023-10-02T18:03:46.249Z,100106.02
2023-10-02T18:06:17.566Z,100104.82
2023-10-02T18:09:48.369Z,100097.73
2023-10-02T18:12:36.081Z,100097.12
2023-10-02T18:15:38.156Z,100098.97
2023-10-02T18:18:16.237Z,100098.23
2023-10-02T18:20:55.330Z,100092.65
2023-10-02T18:23:26.679Z,100096.77
2023-10-02T18:25:55.360Z,100098.67
2023-10-02T18:29:04.818Z,100100.95
2023-10-02T18:31:50.984Z,100097.73
2023-10-02T18:34:40.746Z,100096.02
2023-10-02T18:37:22.080Z,100098.42
2023-10-02T18:39:58.137Z,100098.46
2023-10-02T18:42:37.395Z,100103.73
2023-10-02T18:45:12.421Z,100106.48
2023-10-02T18:47:43.020Z,100109.02
2023-10-02T18:50:14.005Z,100111.67
2023-10-02T18:53:05.164Z,100115.06
2023-10-02T18:55:54.512Z,100113.84
2023-10-02T18:58:24.690Z,100105.30
2023-10-02T19:01:00.349Z,100105.73
2023-10-02T19:03:49.670Z,100104.55
2023-10-02T19:06:28.108Z,100100.11
2023-10-02T19:09:08.962Z,100096.69
2023-10-02T19:11:37.674Z,100092.71
2023-10-02T19:14:32.515Z,100092.95
2023-10-02T19:17:23.632Z,100088.92
2023-10-02T19:19:54.625Z,100080.86
2023-10-02T19:22:33.293Z,100080.34
2023-10-02T19:25:05.242Z,100072.94
2023-10-02T19:28:25.743Z,100067.98
2023-10-02T19:31:24.249Z,100064.59
2023-10-02T19:34:54.504Z,100062.52
2023-10-02T19:38:11.211Z,100059.96
2023-10-02T19:40:47.808Z,100056.17
2023-10-02T19:43:42.426Z,100052.71
2023-10-02T19:46:12.947Z,100050.45
2023-10-02T19:49:46.175Z,100044.32
2023-10-02T19:52:37.562Z,100042.26
2023-10-02T19:55:57.791Z,100039.39
2023-10-02T19:59:13.374Z,100033.64
2023-10-02T20:02:47.348Z,100028.08
2023-10-02T20:05:48.960Z,100030.77
2023-10-02T20:08:42.578Z,100026.31
2023-10-02T20:11:18.628Z,100025.07
2023-10-02T20:14:56.801Z,100021.46
2023-10-02T20:18:19.996Z,100029.91
2023-10-02T20:21:08.521Z,100026.80
2023-10-02T20:23:53.963Z,100025.23
2023-10-02T20:26:58.318Z,100022.79
2023-10-02T20:29:29.328Z,100024.52
2023-10-02T20:32:18.391Z,100025.32
2023-10-02T20:34:47.102Z,100016.23
2023-10-02T20:38:17.641Z,100010.27
2023-10-02T20:41:36.982Z,100013.34
2023-10-02T20:44:16.620Z,100011.21
2023-10-02T20:47:15.406Z,100008.44
2023-10-02T20:50:12.005Z,100009.23
2023-10-02T20:53:31.155Z,100010.70
2023-10-02T20:57:22.848Z,100007.27
2023-10-02T21:01:16.577Z,100004.98
2023-10-02T21:24:23.482Z,99991.81
2023-10-02T21:28:34.100Z,99991.37
2023-10-02T21:31:05.202Z,99988.07
2023-10-02T21:33:33.852Z,99986.17
2023-10-02T21:36:05.520Z,99984.95
2023-10-02T21:38:33.894Z,99986.52
2023-10-02T21:41:15.081Z,99984.45
2023-10-02T21:43:45.165Z,99982.63
2023-10-02T21:46:12.851Z,99980.80
2023-10-02T21:48:41.608Z,99979.05
2023-10-02T21:51:11.707Z,99982.70
2023-10-02T21:53:41.921Z,99976.81
2023-10-02T21:56:16.433Z,99978.13
2023-10-02T21:58:47.559Z,99983.95
2023-10-02T22:01:16.963Z,99988.09
2023-10-02T22:03:45.047Z,99985.48
2023-10-02T22:06:17.897Z,99985.94
2023-10-02T22:09:05.369Z,99985.48
2023-10-02T22:11:37.378Z,99985.91
2023-10-02T22:14:16.523Z,99981.00
2023-10-02T22:16:44.057Z,99976.48
2023-10-02T22:19:33.575Z,99970.52
2023-10-02T22:22:01.288Z,99970.42
2023-10-02T22:24:28.874Z,99967.84
2023-10-02T22:26:56.405Z,99963.98
2023-10-02T22:29:24.786Z,99964.80
2023-10-02T22:31:52.485Z,99965.65
2023-10-02T22:34:30.668Z,99965.05
2023-10-02T22:37:07.762Z,99960.16
2023-10-02T22:39:35.434Z,99958.58
2023-10-02T22:42:02.973Z,99958.16
2023-10-02T22:44:30.459Z,99957.33
2023-10-02T22:46:57.934Z,99957.94
2023-10-02T22:49:43.498Z,99959.70
2023-10-02T22:52:12.640Z,99956.71
2023-10-02T22:54:39.793Z,99954.64
2023-10-02T22:57:09.726Z,99956.23
2023-10-02T22:59:40.082Z,99960.34
2023-10-02T23:02:10.117Z,99956.24
2023-10-02T23:04:40.892Z,99949.84
2023-10-02T23:07:08.298Z,99948.25
2023-10-02T23:09:35.423Z,99949.73
2023-10-02T23:12:06.858Z,99945.19
2023-10-02T23:14:34.637Z,99944.91
2023-10-02T23:17:02.857Z,99941.61
2023-10-02T23:19:30.376Z,99944.53
2023-10-02T23:21:58.061Z,99939.42
2023-10-02T23:24:26.167Z,99939.64
2023-10-02T23:26:54.100Z,99937.85
2023-10-02T23:29:24.799Z,99935.11
2023-10-02T23:31:55.132Z,99934.55
2023-10-02T23:34:22.240Z,99930.67
2023-10-02T23:36:52.758Z,99929.41
2023-10-02T23:39:37.919Z,99925.92
2023-10-02T23:42:08.632Z,99919.55
2023-10-02T23:44:37.804Z,99922.05
2023-10-02T23:47:10.490Z,99917.77
2023-10-02T23:49:38.632Z,99915.42
2023-10-02T23:52:05.953Z,99910.53
2023-10-02T23:54:42.066Z,99911.55
2023-10-02T23:57:12.797Z,99909.20
2023-10-02T23:59:43.089Z,99908.15
